Time,TemperatureF,DewpointF,PressureIn,WindDirection,WindDirectionDegrees,WindSpeedMPH,WindSpeedGustMPH,Humidity,HourlyPrecipIn,Conditions,Clouds,dailyrainin,SolarRadiationWatts/m^2,SoftwareType,DateUTC
2013-02-24 00:22:00,16.0,5.0,-100.00,ENE,57,7.0,20.0,62,-99.99,,,-99.99,0.000000,,2013-02-24 08:22:00,
2013-02-24 00:30:00,17.0,4.0,-100.00,East,93,6.0,21.0,56,-99.99,,,-99.99,0.000000,,2013-02-24 08:30:00,
2013-02-24 01:21:00,17.0,4.0,-100.00,East,93,6.0,21.0,56,-99.99,,,-99.99,0.000000,,2013-02-24 09:21:00,
2013-02-24 01:30:00,16.0,4.0,-100.00,ESE,123,8.0,15.0,58,-99.99,,,-99.99,0.000000,,2013-02-24 09:30:00,
2013-02-24 02:21:00,16.0,4.0,-100.00,ESE,123,8.0,15.0,58,-99.99,,,-99.99,0.000000,,2013-02-24 10:21:00,
2013-02-24 02:30:00,17.0,4.0,-100.00,ESE,103,6.0,19.0,55,-99.99,,,-99.99,0.000000,,2013-02-24 10:30:00,
2013-02-24 03:21:00,17.0,4.0,-100.00,ESE,103,6.0,19.0,55,-99.99,,,-99.99,0.000000,,2013-02-24 11:21:00,
2013-02-24 10:22:00,30.0,-10.0,-100.00,SE,136,3.0,10.0,17,-99.99,,,-99.99,381.000000,,2013-02-24 18:22:00,
2013-02-24 11:22:00,31.0,-7.0,-100.00,ESE,103,6.0,13.0,19,-99.99,,,-99.99,490.000000,,2013-02-24 19:22:00,
2013-02-24 12:21:00,34.0,-7.0,-100.00,ENE,66,6.0,13.0,16,-99.99,,,-99.99,559.000000,,2013-02-24 20:21:00,
2013-02-24 13:21:00,36.0,-5.0,-100.00,SE,139,5.0,13.0,17,-99.99,,,-99.99,569.000000,,2013-02-24 21:21:00,
2013-02-24 14:21:00,40.0,-6.0,-100.00,East,99,4.0,8.0,14,-99.99,,,-99.99,499.000000,,2013-02-24 22:21:00,
2013-02-24 15:21:00,38.0,-6.0,-100.00,ESE,107,7.0,15.0,15,-99.99,,,-99.99,429.000000,,2013-02-24 23:21:00,
2013-02-24 16:30:00,39.0,1.0,-100.00,NNE,18,1.0,4.0,20,-99.99,,,-99.99,40.000000,,2013-02-25 00:30:00,
2013-02-24 17:21:00,39.0,1.0,-100.00,NNE,18,1.0,4.0,20,-99.99,,,-99.99,40.000000,,2013-02-25 01:21:00,
2013-02-24 17:30:00,35.0,5.0,-100.00,North,354,1.0,3.0,27,-99.99,,,-99.99,11.000000,,2013-02-25 01:30:00,
2013-02-24 18:21:00,35.0,5.0,-100.00,North,354,1.0,3.0,27,-99.99,,,-99.99,11.000000,,2013-02-25 02:21:00,
2013-02-24 18:30:00,33.0,9.0,-100.00,South,180,0.0,1.0,35,-99.99,,,-99.99,0.000000,,2013-02-25 02:30:00,
2013-02-24 19:21:00,33.0,9.0,-100.00,South,180,0.0,1.0,35,-99.99,,,-99.99,0.000000,,2013-02-25 03:21:00,
2013-02-24 19:30:00,35.0,3.0,-100.00,ENE,78,1.0,4.0,26,-99.99,,,-99.99,0.000000,,2013-02-25 03:30:00,
2013-02-24 20:21:00,35.0,3.0,-100.00,ENE,78,1.0,4.0,26,-99.99,,,-99.99,0.000000,,2013-02-25 04:21:00,
2013-02-24 22:21:00,35.0,6.0,-100.00,NW,306,1.0,2.0,29,-99.99,,,-99.99,0.000000,,2013-02-25 06:21:00,
2013-02-24 23:21:00,33.0,5.0,-100.00,NW,318,2.0,3.0,30,-99.99,,,-99.99,0.000000,,2013-02-25 07:21:00,
2013-02-24 23:30:00,32.0,4.0,-100.00,NNW,342,2.0,3.0,30,-99.99,,,-99.99,0.000000,,2013-02-25 07:30:00,